Airfield :
LOGIN :

Register | Disclaimer

   EN    FR    IT 

 










Legend :    VFR   Marginal VFR   IFR   Intensive IFR   Very Intensive IFR
Visi :
Ceiling :
>= 8 km
>= 3000ft
5 to 8 km
1000 to 3000 ft
1500m to 5 km
500 to 1000 ft
800 to 1500m
200 to 500 ft
< 800m
< 200 ft
Symbols :   Thunderstorms  Fog  Heavy snow  Heavy precipitations  Wind > 20 kt
SIGMETs :     Misc.  Thunderstorms  Icing  Turbulence  Mountain Waves  Volcanic Ashes






- Airport Elevation : 156 ft
- IATA code : OMO


LQMO - Mostar

CURRENT METAR :
  • 282230Z VRB02KT CAVOK 17/15 Q1014

EXPIRED METARs :
  • 282200Z VRB02KT CAVOK 17/15 Q1014
  • 282130Z VRB02KT 9999 FEW090 17/15 Q1014
  • 282100Z 18005KT 9999 FEW080 17/15 Q1014
  • 282000Z VRB01KT 9999 SCT090 17/15 Q1013
  • 281930Z 12003KT 9999 SCT085 17/15 Q1013
  • 281900Z VRB02KT 9999 -RA FEW055 SCT080 17/15 Q1013
  • 281830Z 26003KT 220V290 9999 -RA FEW050 BKN080 18/15 Q1013
  • 281800Z 19003KT 150V260 9999 SCT066 18/15 Q1014

TAF TAF LQMO
Valid from the 28 at 18:00 until the 29 at 18:00 UTC


281700Z 2818/2918 VRB02KT 9999 SCT045 TX28/2913Z TN13/2904Z
TEMPO 2822/2906 35010KT
PROB30
TEMPO 2912/2918 SHRA FEW035TCU SCT040



MET'MAP, your aeronautical weather chart ! - Copyright ORBIFLY December 2007 - Disclaimer

ORBIFLY MET'MAP TEAM :

Programming & Development : Alexandra Zaïnal
Original concept : Baudouin d'Aumeries
Technical & hardware support : Manuel Goepfert
Assistance : Marc-Olivier Méhu




SOURCES & CREDITS :

   NOAA